This is the latest recevied weather packets stored in our database for station/object W4GAP. If no packets are shown the sender has not sent any weather packets the latest 10 day(s).
| Time | Temp. | Humidity | Pressure | Rain* | Wind** | Luminosity | Snow |
|---|---|---|---|---|---|---|---|
| 1778262297 | 20.56° C | 52% | 1013.1 hPa | 0 mm | - | 132 W/m² | - |
| 1778261994 | 20.56° C | 56% | 1013.3 hPa | 0 mm | - | 404 W/m² | - |
| 1778261691 | 20.56° C | 54% | 1013.3 hPa | 0 mm | - | 290 W/m² | - |
| 1778261387 | 20.56° C | 55% | 1013.1 hPa | 0 mm | - | 178 W/m² | - |
| 1778261084 | 20.56° C | 53% | 1013.5 hPa | 0 mm | - | 89 W/m² | - |
| 1778260780 | 20.56° C | 52% | 1013.5 hPa | 0 mm | - | 148 W/m² | - |
| 1778260477 | 21.11° C | 50% | 1013.5 hPa | 0 mm | - | 776 W/m² | - |
| 1778260174 | 21.11° C | 52% | 1013.8 hPa | 0 mm | - | 789 W/m² | - |
| 1778259871 | 20.56° C | 54% | 1013.5 hPa | 0 mm | - | 789 W/m² | - |
| 1778259568 | 20.56° C | 55% | 1013.7 hPa | 0 mm | - | 763 W/m² | - |
| 1778259266 | 20° C | 59% | 1014 hPa | 0 mm | - | 719 W/m² | - |
| 1778258961 | 20.56° C | 53% | 1014.1 hPa | 0 mm | - | 682 W/m² | - |
| 1778258659 | 20.56° C | 57% | 1014.2 hPa | 0 mm | - | 766 W/m² | - |
| 1778258356 | 20° C | 59% | 1014 hPa | 0 mm | - | 488 W/m² | - |
| 1778258054 | 19.44° C | 59% | 1014.2 hPa | 0 mm | - | 552 W/m² | - |
| 1778257748 | 19.44° C | 61% | 1014.6 hPa | 0 mm | - | 615 W/m² | - |
| 1778257446 | 19.44° C | 58% | 1014.3 hPa | 0 mm | - | 583 W/m² | - |
| 1778257143 | 19.44° C | 59% | 1014.6 hPa | 0 mm | - | 723 W/m² | - |
| 1778256841 | 18.89° C | 65% | 1014.6 hPa | 0 mm | - | 684 W/m² | - |
| 1778256538 | 19.44° C | 60% | 1015 hPa | 0 mm | - | 491 W/m² | - |
| 1778256236 | 19.44° C | 60% | 1014.7 hPa | 0 mm | - | 544 W/m² | - |
| 1778255932 | 18.89° C | 64% | 1014.6 hPa | 0 mm | - | 222 W/m² | - |
| 1778255629 | 18.89° C | 62% | 1014.9 hPa | 0 mm | - | 298 W/m² | - |
| 1778255326 | 18.33° C | 62% | 1015 hPa | 0 mm | - | 143 W/m² | - |
| 1778255024 | 18.33° C | 61% | 1014.9 hPa | 0 mm | - | 160 W/m² | - |
* Rain latest hour (hover to see other rain measurements)
** Current wind speed in m/s (hover to see current wind gust speed)